Time;durP1;ratioP1;P1;durP2;ratioP2;P2;SDS_P1;SDS_P2;PMS_P1;PMS_P2;Temp;Humidity;BMP_temperature;BMP_pressure;BME280_temperature;BME280_humidity;BME280_pressure;Samples;Min_cycle;Max_cycle;Signal;HPM_P1;HPM_P2
2022/12/28 00:02:16;;;;;;;12.73;5.40;;;;;;;6.40;100.00;101570.13;5040486;28;20623;-74
2022/12/28 00:04:42;;;;;;;11.33;5.53;;;;;;;6.38;100.00;101568.56;5041631;28;20147;-74
2022/12/28 00:07:08;;;;;;;19.83;5.60;;;;;;;6.45;100.00;101577.81;5042933;28;20482;-74
2022/12/28 00:09:33;;;;;;;13.15;5.57;;;;;;;6.45;100.00;101575.97;5040893;28;20021;-75
2022/12/28 00:11:58;;;;;;;16.08;6.15;;;;;;;6.42;100.00;101573.53;5041158;28;20162;-74
2022/12/28 00:14:25;;;;;;;16.88;6.20;;;;;;;6.45;100.00;101569.66;5043257;28;20396;-74
2022/12/28 00:16:50;;;;;;;19.92;6.55;;;;;;;6.49;100.00;101568.34;5040927;28;20484;-74
2022/12/28 00:19:16;;;;;;;15.77;5.97;;;;;;;6.56;100.00;101564.84;5038148;28;20082;-75
2022/12/28 00:21:43;;;;;;;13.27;6.60;;;;;;;6.56;100.00;101572.19;5036104;28;20025;-74
2022/12/28 00:24:17;;;;;;;12.10;5.30;;;;;;;6.52;100.00;101543.56;5042778;28;20048;-75
2022/12/28 00:26:43;;;;;;;11.40;5.70;;;;;;;6.58;100.00;101560.09;5039832;28;20026;-75
2022/12/28 00:29:08;;;;;;;13.95;5.90;;;;;;;6.60;100.00;101555.38;5037591;28;20082;-74
2022/12/28 00:31:34;;;;;;;9.18;5.22;;;;;;;6.59;100.00;101541.91;5036357;28;20148;-76
2022/12/28 00:34:00;;;;;;;12.85;6.47;;;;;;;6.64;100.00;101535.03;5046792;28;20186;-74
2022/12/28 00:36:26;;;;;;;17.95;6.47;;;;;;;6.66;100.00;101521.22;5037351;28;20041;-75
2022/12/28 00:38:52;;;;;;;10.07;5.68;;;;;;;6.69;100.00;101513.63;5040848;28;20520;-75
2022/12/28 00:41:18;;;;;;;11.43;5.88;;;;;;;6.68;100.00;101506.44;5036504;28;20057;-76
2022/12/28 00:43:44;;;;;;;14.93;6.18;;;;;;;6.78;100.00;101507.22;5021962;28;20522;-76
2022/12/28 00:46:10;;;;;;;13.52;6.57;;;;;;;6.75;100.00;101502.13;5037212;28;20064;-75
2022/12/28 00:48:36;;;;;;;19.35;7.60;;;;;;;6.78;100.00;101479.16;5040631;28;20056;-75
2022/12/28 00:51:03;;;;;;;11.23;6.13;;;;;;;6.80;100.00;101482.56;5039186;28;20500;-75
2022/12/28 00:53:28;;;;;;;11.90;6.40;;;;;;;6.84;100.00;101473.91;5034375;28;20025;-75
2022/12/28 00:56:13;;;;;;;13.27;6.35;;;;;;;6.86;100.00;101476.50;5035892;28;20033;-75
2022/12/28 00:58:39;;;;;;;17.05;6.47;;;;;;;6.87;100.00;101472.75;5033202;28;20384;-75
2022/12/28 01:01:10;;;;;;;11.73;6.95;;;;;;;6.87;100.00;101473.63;5034060;28;20044;-75
2022/12/28 01:03:35;;;;;;;13.40;6.65;;;;;;;6.92;100.00;101464.97;5024360;28;20049;-76
2022/12/28 01:06:06;;;;;;;20.10;6.85;;;;;;;6.98;100.00;101467.03;5037896;28;20032;-75
2022/12/28 01:08:31;;;;;;;21.08;6.78;;;;;;;6.96;100.00;101472.69;5030465;28;20044;-76
2022/12/28 01:10:57;;;;;;;16.95;7.07;;;;;;;6.92;100.00;101468.56;5034166;28;20037;-74
2022/12/28 01:13:22;;;;;;;16.55;6.63;;;;;;;7.01;100.00;101464.03;5038226;28;20033;-76
2022/12/28 01:15:47;;;;;;;16.45;6.53;;;;;;;7.05;100.00;101449.06;5042623;28;20051;-75
2022/12/28 01:18:14;;;;;;;17.05;7.65;;;;;;;7.04;100.00;101452.81;5038800;28;20033;-75
2022/12/28 01:20:40;;;;;;;18.23;7.43;;;;;;;7.04;100.00;101444.66;5039090;28;20503;-75
2022/12/28 01:23:05;;;;;;;16.52;6.47;;;;;;;7.02;100.00;101441.22;5038836;28;20029;-75
2022/12/28 01:25:32;;;;;;;14.55;6.28;;;;;;;7.06;100.00;101448.88;5036626;28;20033;-76
2022/12/28 01:27:59;;;;;;;10.65;6.15;;;;;;;7.03;100.00;101430.16;5039372;28;20053;-75
2022/12/28 01:30:25;;;;;;;13.48;6.70;;;;;;;7.10;100.00;101430.38;5037036;28;20074;-74
2022/12/28 01:32:51;;;;;;;9.52;6.68;;;;;;;7.18;100.00;101434.00;5032810;28;20044;-75
2022/12/28 01:35:16;;;;;;;14.13;7.28;;;;;;;7.16;100.00;101421.56;5040731;28;20427;-75
2022/12/28 01:37:42;;;;;;;10.75;6.03;;;;;;;7.15;100.00;101422.59;5039416;28;20115;-76
2022/12/28 01:40:08;;;;;;;11.23;5.60;;;;;;;7.16;100.00;101418.84;5027854;28;20044;-74
2022/12/28 01:42:37;;;;;;;14.35;7.43;;;;;;;7.21;100.00;101435.56;5039170;28;20033;-76
2022/12/28 01:45:16;;;;;;;17.55;7.13;;;;;;;7.15;100.00;101426.16;5037264;28;20078;-75
2022/12/28 01:47:41;;;;;;;14.45;6.63;;;;;;;7.12;100.00;101412.88;5039563;28;20839;-75
2022/12/28 01:50:11;;;;;;;13.80;7.88;;;;;;;7.16;100.00;101419.69;5032443;28;20033;-75
2022/12/28 01:53:01;;;;;;;15.45;6.97;;;;;;;7.12;100.00;101404.69;5032555;28;20034;-76
2022/12/28 01:55:31;;;;;;;17.38;6.65;;;;;;;7.14;100.00;101407.22;5036982;28;20075;-75
2022/12/28 01:58:06;;;;;;;12.85;6.85;;;;;;;7.19;100.00;101400.31;5037355;28;20032;-75
2022/12/28 02:00:32;;;;;;;14.95;7.72;;;;;;;7.24;100.00;101394.34;5035282;28;20524;-74
2022/12/28 02:03:02;;;;;;;14.90;6.88;;;;;;;7.17;100.00;101393.31;5034172;28;20069;-75
2022/12/28 02:05:35;;;;;;;13.60;6.38;;;;;;;7.17;100.00;101385.13;5039140;28;20032;-75
2022/12/28 02:08:12;;;;;;;15.32;7.03;;;;;;;7.17;100.00;101393.31;5036473;28;20091;-75
2022/12/28 02:10:40;;;;;;;13.70;6.38;;;;;;;7.18;100.00;101386.84;5036723;28;20049;-76
2022/12/28 02:13:06;;;;;;;14.75;7.32;;;;;;;7.25;100.00;101391.47;5024881;28;20531;-75
2022/12/28 02:15:31;;;;;;;14.30;7.30;;;;;;;7.23;100.00;101379.91;5040066;28;20056;-74
2022/12/28 02:17:58;;;;;;;11.30;6.78;;;;;;;7.20;100.00;101369.31;5035197;28;20022;-75
2022/12/28 02:20:30;;;;;;;11.77;7.22;;;;;;;7.20;100.00;101374.75;5038803;28;20032;-76
2022/12/28 02:23:22;;;;;;;19.33;8.05;;;;;;;7.21;100.00;101357.38;5036549;28;20029;-74
2022/12/28 02:26:24;;;;;;;12.95;6.65;;;;;;;7.14;100.00;101356.34;5038778;28;20033;-74
2022/12/28 02:29:11;;;;;;;14.75;7.38;;;;;;;7.16;100.00;101357.03;5038953;28;20104;-76
2022/12/28 02:31:42;;;;;;;10.60;7.60;;;;;;;7.17;100.00;101347.88;5043445;28;20078;-76
2022/12/28 02:34:15;;;;;;;15.43;8.10;;;;;;;7.20;100.00;101335.78;5034787;28;20044;-75
2022/12/28 02:36:51;;;;;;;13.60;8.60;;;;;;;7.13;100.00;101335.56;5038617;28;20049;-76
2022/12/28 02:39:23;;;;;;;12.30;7.18;;;;;;;7.21;100.00;101338.31;5038420;28;20515;-77
2022/12/28 02:41:50;;;;;;;13.82;8.15;;;;;;;7.28;100.00;101331.22;5044401;28;20084;-76
2022/12/28 02:50:04;;;;;;;11.20;7.55;;;;;;;7.35;100.00;101317.75;5034148;28;20392;-75
2022/12/28 02:50:05;;;;;;;10.75;6.95;;;;;;;7.42;100.00;101322.41;5034704;28;20848;-76
2022/12/28 02:52:42;;;;;;;9.93;7.05;;;;;;;7.53;100.00;101311.19;5037532;28;20033;-77
2022/12/28 02:58:36;;;;;;;12.63;6.15;;;;;;;7.65;100.00;101307.16;5046681;28;20010;-76
2022/12/28 03:01:23;;;;;;;12.10;6.60;;;;;;;7.67;100.00;101317.84;5022502;28;20111;-75
2022/12/28 03:04:30;;;;;;;17.15;6.43;;;;;;;7.72;100.00;101310.03;5046556;28;20027;-76
2022/12/28 03:10:20;;;;;;;11.85;6.30;;;;;;;7.82;100.00;101308.88;5043680;28;20032;-78
2022/12/28 03:16:06;;;;;;;9.27;5.32;;;;;;;7.85;100.00;101307.69;5040062;28;20124;-78
2022/12/28 03:32:43;;;;;;;13.45;5.57;;;;;;;7.99;100.00;101282.44;5043136;28;20040;-78
2022/12/28 03:35:09;;;;;;;8.57;5.20;;;;;;;7.98;100.00;101270.69;5047770;28;20023;-78
2022/12/28 03:37:44;;;;;;;8.27;5.28;;;;;;;8.00;100.00;101268.66;5042734;28;20041;-78
2022/12/28 03:40:31;;;;;;;12.23;5.72;;;;;;;8.00;100.00;101284.19;5045709;28;20489;-78
2022/12/28 03:45:56;;;;;;;11.13;5.78;;;;;;;8.01;100.00;101273.06;5044167;28;20584;-78
2022/12/28 03:48:23;;;;;;;10.90;5.20;;;;;;;8.00;100.00;101290.47;5047282;28;20021;-77
2022/12/28 03:50:50;;;;;;;9.02;5.10;;;;;;;8.04;100.00;101282.78;5043923;28;20481;-77
2022/12/28 03:53:21;;;;;;;5.93;5.05;;;;;;;8.07;100.00;101277.00;5048021;28;20033;-78
2022/12/28 03:55:47;;;;;;;8.60;5.13;;;;;;;8.04;100.00;101260.97;5047704;28;20611;-78
2022/12/28 03:58:12;;;;;;;9.85;4.78;;;;;;;8.07;100.00;101277.00;5044240;28;20031;-78
2022/12/28 04:00:37;;;;;;;8.68;4.95;;;;;;;8.07;100.00;101286.03;5038650;28;20500;-79
2022/12/28 04:03:03;;;;;;;7.13;4.78;;;;;;;8.07;100.00;101293.38;5046024;28;20021;-78
2022/12/28 04:05:29;;;;;;;6.82;4.50;;;;;;;8.10;100.00;101273.91;5045348;28;20081;-78
2022/12/28 04:07:54;;;;;;;8.10;4.15;;;;;;;8.12;100.00;101277.34;5038302;28;20038;-78
2022/12/28 04:10:19;;;;;;;8.02;4.50;;;;;;;8.10;100.00;101265.72;5038275;28;20354;-78
2022/12/28 04:12:45;;;;;;;14.20;5.70;;;;;;;8.12;100.00;101267.28;5034829;28;20041;-79
2022/12/28 04:15:10;;;;;;;7.88;4.28;;;;;;;8.13;100.00;101262.69;5039305;28;20021;-78
2022/12/28 04:17:36;;;;;;;12.82;5.18;;;;;;;8.15;100.00;101257.88;5038518;28;21077;-78
2022/12/28 04:20:01;;;;;;;8.35;4.30;;;;;;;8.18;100.00;101257.56;5038877;28;20110;-78
2022/12/28 04:22:26;;;;;;;7.18;4.03;;;;;;;8.22;100.00;101254.34;5037965;28;20603;-77
2022/12/28 04:24:52;;;;;;;9.57;4.03;;;;;;;8.26;100.00;101250.25;5037096;28;20029;-76
2022/12/28 04:27:17;;;;;;;8.18;4.20;;;;;;;8.25;100.00;101244.97;5042273;28;20060;-77
2022/12/28 04:29:43;;;;;;;4.55;4.05;;;;;;;8.30;100.00;101243.44;5042328;28;20489;-76
2022/12/28 04:32:08;;;;;;;8.43;3.97;;;;;;;8.33;100.00;101236.78;5039453;28;20430;-77
2022/12/28 04:34:33;;;;;;;7.00;4.30;;;;;;;8.33;100.00;101239.50;5035937;28;20033;-77
2022/12/28 04:36:59;;;;;;;7.05;4.40;;;;;;;8.39;100.00;101238.81;5027068;28;20056;-76
2022/12/28 04:39:25;;;;;;;11.05;4.00;;;;;;;8.39;100.00;101231.44;5038964;28;20555;-76
2022/12/28 04:41:51;;;;;;;9.02;3.85;;;;;;;8.40;100.00;101246.81;5042822;28;20032;-76
2022/12/28 04:44:16;;;;;;;10.68;4.63;;;;;;;8.43;100.00;101251.09;5038308;28;20036;-77
2022/12/28 04:46:42;;;;;;;10.43;4.25;;;;;;;8.45;100.00;101238.09;5040355;28;20029;-77
2022/12/28 04:49:08;;;;;;;8.55;3.50;;;;;;;8.49;100.00;101239.47;5040834;28;20076;-77
2022/12/28 04:51:34;;;;;;;13.52;3.38;;;;;;;8.39;100.00;101239.63;5037390;28;20087;-77
2022/12/28 04:54:00;;;;;;;13.70;3.92;;;;;;;8.46;100.00;101234.34;5038557;28;20357;-77
2022/12/28 04:56:26;;;;;;;7.18;3.30;;;;;;;8.44;100.00;101236.41;5039249;28;20067;-77
2022/12/28 04:58:57;;;;;;;6.85;3.00;;;;;;;8.50;100.00;101238.44;5039795;28;20450;-77
2022/12/28 05:01:23;;;;;;;8.48;3.78;;;;;;;8.54;100.00;101226.16;5039236;28;20468;-76
2022/12/28 05:03:51;;;;;;;7.18;3.63;;;;;;;8.57;100.00;101233.97;5037521;28;20080;-77
2022/12/28 05:06:18;;;;;;;9.82;4.05;;;;;;;8.61;100.00;101240.78;5047694;28;20090;-76
2022/12/28 05:08:44;;;;;;;7.65;3.97;;;;;;;8.58;100.00;101230.22;5040455;28;20049;-76
2022/12/28 05:11:19;;;;;;;6.35;3.15;;;;;;;8.59;100.00;101221.03;5038836;28;20489;-77
2022/12/28 05:13:45;;;;;;;8.35;4.10;;;;;;;8.58;100.00;101220.16;5035765;28;20828;-78
2022/12/28 05:16:14;;;;;;;8.48;3.70;;;;;;;8.57;100.00;101206.66;5038534;28;20030;-77
2022/12/28 05:18:39;;;;;;;7.43;3.63;;;;;;;8.54;100.00;101207.03;5036119;28;20112;-77
2022/12/28 05:21:16;;;;;;;8.15;4.20;;;;;;;8.65;100.00;101203.94;5031869;28;20470;-77
2022/12/28 05:23:42;;;;;;;6.63;3.45;;;;;;;8.58;100.00;101191.97;5038850;28;20102;-77
2022/12/28 05:26:11;;;;;;;6.20;3.73;;;;;;;8.63;100.00;101197.78;5035634;28;20140;-78
2022/12/28 05:28:37;;;;;;;16.55;3.53;;;;;;;8.66;100.00;101195.53;5037045;28;20267;-77
2022/12/28 05:31:05;;;;;;;6.50;3.17;;;;;;;8.67;100.00;101207.31;5039527;28;20484;-77
2022/12/28 05:33:33;;;;;;;9.55;3.50;;;;;;;8.63;100.00;101216.88;5042154;28;20025;-77
2022/12/28 05:36:16;;;;;;;7.43;3.17;;;;;;;8.67;100.00;101197.25;5033864;28;20065;-78
2022/12/28 05:38:42;;;;;;;8.73;3.58;;;;;;;8.62;100.00;101198.81;5040215;28;20025;-78
2022/12/28 05:41:20;;;;;;;8.73;3.50;;;;;;;8.69;100.00;101214.31;5035654;28;20025;-78
2022/12/28 05:43:46;;;;;;;5.30;3.17;;;;;;;8.67;100.00;101193.66;5035445;28;20102;-78
2022/12/28 05:46:14;;;;;;;5.50;4.23;;;;;;;8.71;100.00;101197.75;5036274;28;20033;-78
2022/12/28 05:48:41;;;;;;;11.23;4.22;;;;;;;8.69;100.00;101203.38;5038923;28;20017;-78
2022/12/28 05:51:13;;;;;;;7.03;3.33;;;;;;;8.67;100.00;101200.00;5042132;28;20522;-77
2022/12/28 05:53:41;;;;;;;6.90;3.00;;;;;;;8.69;100.00;101194.31;5034930;28;20025;-77
2022/12/28 05:56:14;;;;;;;12.18;2.50;;;;;;;8.73;100.00;101198.41;5033067;28;20033;-77
2022/12/28 05:58:40;;;;;;;3.88;2.80;;;;;;;8.74;100.00;101189.19;5036064;28;20029;-78
2022/12/28 06:01:08;;;;;;;5.25;2.80;;;;;;;8.78;100.00;101187.81;5036538;28;20025;-78
2022/12/28 06:03:34;;;;;;;5.55;3.20;;;;;;;8.76;100.00;101192.63;5040925;28;20021;-77
2022/12/28 06:06:14;;;;;;;10.10;3.20;;;;;;;8.75;100.00;101180.00;5025782;28;20106;-77
2022/12/28 06:08:40;;;;;;;4.90;2.97;;;;;;;8.77;100.00;101197.91;5036172;28;20409;-76
2022/12/28 06:11:08;;;;;;;7.18;3.58;;;;;;;8.81;100.00;101179.28;5042614;28;20025;-77
2022/12/28 06:13:35;;;;;;;6.97;2.83;;;;;;;8.79;100.00;101173.13;5038285;28;20067;-76
2022/12/28 06:16:09;;;;;;;3.65;2.67;;;;;;;8.80;100.00;101172.94;5035115;28;20058;-76
2022/12/28 06:18:34;;;;;;;6.47;3.03;;;;;;;8.79;100.00;101173.13;5038086;28;20047;-77
2022/12/28 06:21:02;;;;;;;7.85;2.90;;;;;;;8.78;100.00;101175.03;5033329;28;20025;-77
2022/12/28 06:23:27;;;;;;;8.63;2.50;;;;;;;8.84;100.00;101179.78;5038423;28;20163;-76
2022/12/28 06:25:52;;;;;;;4.30;2.60;;;;;;;8.84;100.00;101168.84;5036412;28;20049;-75
2022/12/28 06:28:18;;;;;;;11.43;2.63;;;;;;;8.81;100.00;101176.56;5040082;28;20488;-77
2022/12/28 06:30:43;;;;;;;3.83;2.40;;;;;;;8.79;100.00;101173.13;5038382;28;20033;-77
2022/12/28 06:33:09;;;;;;;4.65;3.03;;;;;;;8.83;100.00;101175.34;5038539;28;20033;-76
2022/12/28 06:35:38;;;;;;;4.28;2.88;;;;;;;8.85;100.00;101170.53;5032806;28;20512;-77
2022/12/28 06:38:04;;;;;;;4.25;2.60;;;;;;;8.80;100.00;101174.84;5038190;28;20449;-77
2022/12/28 06:40:29;;;;;;;7.03;2.53;;;;;;;8.87;100.00;101165.75;5039634;28;20108;-77
2022/12/28 06:42:55;;;;;;;4.07;2.65;;;;;;;8.88;100.00;101162.00;5038529;28;20028;-77
2022/12/28 06:45:21;;;;;;;5.03;2.90;;;;;;;8.81;100.00;101161.00;5035690;28;20028;-77
2022/12/28 06:47:46;;;;;;;5.97;2.53;;;;;;;8.80;100.00;101158.47;5033278;28;20037;-77
2022/12/28 06:50:11;;;;;;;5.53;2.75;;;;;;;8.82;100.00;101161.84;5037515;28;20098;-77
2022/12/28 06:52:37;;;;;;;8.15;2.97;;;;;;;8.82;100.00;101157.22;5037093;28;20036;-77
2022/12/28 06:55:02;;;;;;;8.45;2.70;;;;;;;8.88;100.00;101166.59;5034853;28;20037;-77
2022/12/28 06:57:28;;;;;;;5.35;2.75;;;;;;;8.87;100.00;101157.53;5034444;28;20024;-78
2022/12/28 06:59:53;;;;;;;6.47;2.67;;;;;;;8.91;100.00;101152.59;5033392;28;20033;-77
2022/12/28 07:02:19;;;;;;;7.25;3.45;;;;;;;8.89;100.00;101150.03;5033450;28;20401;-77
2022/12/28 07:04:44;;;;;;;4.47;3.00;;;;;;;8.93;100.00;101147.78;5032536;28;20107;-77
2022/12/28 07:07:10;;;;;;;5.72;3.08;;;;;;;8.89;100.00;101144.59;5037981;28;20428;-77
2022/12/28 07:09:35;;;;;;;3.42;2.55;;;;;;;8.93;100.00;101145.06;5034112;28;20022;-77
2022/12/28 07:12:01;;;;;;;8.25;2.95;;;;;;;8.92;100.00;101154.28;5040714;28;20025;-77
2022/12/28 07:14:27;;;;;;;5.00;3.17;;;;;;;8.95;100.00;101145.72;5039304;28;20132;-77
2022/12/28 07:16:52;;;;;;;8.43;2.50;;;;;;;8.91;100.00;101153.44;5037244;28;20028;-77
2022/12/28 07:19:18;;;;;;;5.20;2.70;;;;;;;8.93;100.00;101148.66;5041244;28;20025;-78
2022/12/28 07:21:43;;;;;;;9.00;2.95;;;;;;;8.99;100.00;101158.00;5037045;28;20059;-77
2022/12/28 07:24:08;;;;;;;3.50;2.47;;;;;;;8.91;100.00;101145.25;5039940;28;20025;-77
2022/12/28 07:26:35;;;;;;;6.18;2.72;;;;;;;8.95;100.00;101154.78;5039505;28;20480;-78
2022/12/28 07:29:03;;;;;;;8.85;3.00;;;;;;;8.93;100.00;101136.88;5037397;28;20017;-77
2022/12/28 07:31:36;;;;;;;8.30;2.85;;;;;;;8.98;100.00;101139.91;5031853;28;20036;-77
2022/12/28 07:34:02;;;;;;;7.07;2.85;;;;;;;8.96;100.00;101150.19;5034893;28;20413;-77
2022/12/28 07:36:29;;;;;;;7.47;2.70;;;;;;;9.02;100.00;101152.19;5034871;28;20048;-77
2022/12/28 07:38:55;;;;;;;8.27;3.35;;;;;;;9.01;100.00;101153.19;5034860;28;20377;-76
2022/12/28 07:41:27;;;;;;;10.37;3.30;;;;;;;9.02;100.00;101141.25;5040181;28;20040;-77
2022/12/28 07:43:53;;;;;;;5.97;3.67;;;;;;;9.02;100.00;101146.72;5036949;28;20038;-76
2022/12/28 07:46:22;;;;;;;4.25;3.08;;;;;;;9.01;100.00;101134.06;5036360;28;20036;-78
2022/12/28 07:48:48;;;;;;;6.60;3.45;;;;;;;8.99;100.00;101147.94;5033389;28;20035;-76
2022/12/28 07:51:28;;;;;;;22.00;4.47;;;;;;;9.00;100.00;101146.91;5038215;28;20572;-74
2022/12/28 07:53:56;;;;;;;10.00;4.38;;;;;;;8.99;100.00;101152.53;5035331;28;20033;-79
2022/12/28 07:56:22;;;;;;;8.13;4.30;;;;;;;9.02;100.00;101149.47;5037272;28;20025;-77
2022/12/28 07:58:49;;;;;;;9.82;4.65;;;;;;;9.03;100.00;101142.97;5037682;28;20397;-77
2022/12/28 08:01:16;;;;;;;;;;;;;;;9.01;100.00;101155.94;5044594;28;20026;-77
2022/12/28 08:03:42;;;;;;;10.00;4.22;;;;;;;9.00;100.00;101151.50;5046290;28;19912;-77
2022/12/28 08:06:13;;;;;;;4.75;4.25;;;;;;;9.01;100.00;101150.47;5038024;28;20079;-77
2022/12/28 08:08:41;;;;;;;9.00;4.68;;;;;;;8.99;100.00;101153.41;5045326;28;20033;-77
2022/12/28 08:11:11;;;;;;;5.05;4.55;;;;;;;8.98;100.00;101139.91;5040442;28;20037;-77
2022/12/28 08:13:39;;;;;;;7.95;5.05;;;;;;;8.95;100.00;101141.13;5034900;28;20087;-78
2022/12/28 08:16:05;;;;;;;6.90;4.55;;;;;;;8.99;100.00;101149.81;5040852;28;20492;-77
2022/12/28 08:18:32;;;;;;;7.60;4.63;;;;;;;8.96;100.00;101158.38;5037303;28;20692;-77
2022/12/28 08:21:11;;;;;;;8.75;4.50;;;;;;;8.95;100.00;101141.13;5038993;28;20057;-76
2022/12/28 08:23:37;;;;;;;9.35;4.57;;;;;;;8.95;100.00;101145.72;5039569;28;20058;-76
2022/12/28 08:26:11;;;;;;;6.25;4.03;;;;;;;8.98;100.00;101145.38;5037237;28;20391;-75
2022/12/28 08:28:38;;;;;;;11.95;5.93;;;;;;;8.97;100.00;101133.59;5038940;28;20017;-75
2022/12/28 08:31:15;;;;;;;7.50;4.07;;;;;;;8.96;100.00;101145.56;5035879;28;20029;-74
2022/12/28 08:33:41;;;;;;;10.57;3.80;;;;;;;8.95;100.00;101137.53;5047594;28;20562;-75
2022/12/28 08:36:08;;;;;;;10.85;4.70;;;;;;;8.95;100.00;101134.78;5040342;28;20048;-76
2022/12/28 08:38:34;;;;;;;7.80;3.88;;;;;;;8.99;100.00;101144.34;5039849;28;20124;-76
2022/12/28 08:41:02;;;;;;;6.97;4.35;;;;;;;9.02;100.00;101131.16;5037236;28;20033;-75
2022/12/28 08:43:28;;;;;;;12.95;4.30;;;;;;;9.05;100.00;101138.16;5043063;28;20264;-76
2022/12/28 08:46:01;;;;;;;7.40;4.07;;;;;;;9.07;100.00;101127.91;5037555;28;20029;-76
2022/12/28 08:48:27;;;;;;;7.72;4.00;;;;;;;9.06;100.00;101137.97;5037883;28;20753;-76
2022/12/28 08:50:53;;;;;;;6.63;4.17;;;;;;;9.09;100.00;101144.97;5039936;28;20389;-76
2022/12/28 08:53:20;;;;;;;5.57;3.78;;;;;;;9.09;100.00;101139.50;5034745;28;20355;-76
2022/12/28 08:55:46;;;;;;;10.00;4.10;;;;;;;9.13;100.00;101138.13;5033995;28;20042;-77
2022/12/28 08:58:12;;;;;;;6.88;3.53;;;;;;;9.15;100.00;101133.31;5039236;28;20033;-76
2022/12/28 09:00:37;;;;;;;8.32;3.70;;;;;;;9.15;100.00;101134.19;5031201;28;20029;-76
2022/12/28 09:03:02;;;;;;;9.88;3.80;;;;;;;9.15;100.00;101125.97;5031807;28;20029;-76
2022/12/28 09:05:28;;;;;;;9.73;3.75;;;;;;;9.17;100.00;101126.63;5036636;28;20370;-77
2022/12/28 09:07:53;;;;;;;7.32;3.45;;;;;;;9.20;100.00;101133.63;5037788;28;20033;-75
2022/12/28 09:10:19;;;;;;;17.83;3.38;;;;;;;9.18;100.00;101138.44;5041211;28;20028;-75
2022/12/28 09:12:44;;;;;;;8.15;3.17;;;;;;;9.23;100.00;101138.75;5036796;28;20053;-76
2022/12/28 09:15:10;;;;;;;5.45;3.00;;;;;;;9.24;100.00;101124.88;5040958;28;20116;-76
2022/12/28 09:17:35;;;;;;;13.10;3.10;;;;;;;9.21;100.00;101130.72;5034374;28;20082;-75
2022/12/28 09:20:00;;;;;;;6.63;2.95;;;;;;;9.28;100.00;101141.78;5038908;28;20087;-75
2022/12/28 09:22:27;;;;;;;8.38;2.72;;;;;;;9.31;100.00;101133.19;5033125;28;20393;-76
2022/12/28 09:24:52;;;;;;;6.70;2.60;;;;;;;9.30;100.00;101129.59;5040314;28;20102;-74
2022/12/28 09:27:18;;;;;;;11.40;2.80;;;;;;;9.35;100.00;101131.81;5040786;28;20304;-75
2022/12/28 09:29:43;;;;;;;8.90;2.63;;;;;;;9.38;100.00;101125.94;5039255;28;20029;-75
2022/12/28 09:32:08;;;;;;;10.35;3.25;;;;;;;9.34;100.00;101124.66;5037852;28;20079;-75
2022/12/28 09:34:34;;;;;;;8.95;3.22;;;;;;;9.39;100.00;101130.41;5038787;28;20025;-75
2022/12/28 09:37:00;;;;;;;13.05;3.80;;;;;;;9.41;100.00;101131.06;5033960;28;20402;-75
2022/12/28 09:39:26;;;;;;;7.30;3.42;;;;;;;9.41;100.00;101121.00;5036125;28;20021;-75
2022/12/28 09:41:57;;;;;;;11.52;2.85;;;;;;;9.43;100.00;101129.00;5033943;28;20032;-74
2022/12/28 09:44:46;;;;;;;11.80;3.45;;;;;;;9.41;100.00;101131.06;5035286;28;20037;-76
2022/12/28 09:47:18;;;;;;;9.00;3.20;;;;;;;9.43;100.00;101124.38;5031397;28;20076;-75
2022/12/28 09:49:47;;;;;;;14.32;3.95;;;;;;;9.45;100.00;101121.47;5033582;28;20040;-77
2022/12/28 09:52:27;;;;;;;7.40;2.80;;;;;;;9.52;100.00;101128.78;5034880;28;20136;-76
2022/12/28 09:54:53;;;;;;;5.22;2.92;;;;;;;9.49;100.00;101106.38;5033842;28;20029;-75
2022/12/28 09:57:20;;;;;;;7.85;2.75;;;;;;;9.50;100.00;101125.34;5029972;28;20576;-75
2022/12/28 09:59:47;;;;;;;6.45;2.78;;;;;;;9.52;100.00;101126.03;5032362;28;20059;-74
2022/12/28 10:02:39;;;;;;;7.65;2.80;;;;;;;9.49;100.00;101126.38;5038796;28;20017;-74
2022/12/28 10:05:05;;;;;;;7.22;2.92;;;;;;;9.46;100.00;101112.22;5032135;28;20040;-75
2022/12/28 10:07:31;;;;;;;10.07;3.20;;;;;;;9.46;100.00;101112.22;5035358;28;20368;-76
2022/12/28 10:09:57;;;;;;;9.57;2.75;;;;;;;9.50;100.00;101114.41;5037501;28;20032;-75
2022/12/28 10:12:25;;;;;;;4.95;2.75;;;;;;;9.45;100.00;101122.31;5035992;28;20082;-76
2022/12/28 10:14:52;;;;;;;8.52;3.72;;;;;;;9.43;100.00;101112.59;5030871;28;20033;-75
2022/12/28 10:17:24;;;;;;;6.85;2.95;;;;;;;9.38;100.00;101117.75;5034887;28;20009;-75
2022/12/28 10:19:51;;;;;;;8.25;2.92;;;;;;;9.29;100.00;101105.19;5032264;28;20041;-75
2022/12/28 10:22:19;;;;;;;8.73;4.22;;;;;;;9.26;100.00;101111.03;5034109;28;20037;-75
2022/12/28 10:24:46;;;;;;;8.05;3.20;;;;;;;9.20;100.00;101111.75;5030402;28;20025;-75
2022/12/28 10:27:17;;;;;;;;;;;;;;;9.16;100.00;101121.34;5035366;28;20029;-75
2022/12/28 10:29:43;;;;;;;5.85;3.00;;;;;;;9.09;100.00;101109.44;5030799;28;20006;-76
2022/12/28 10:32:11;;;;;;;15.60;3.38;;;;;;;9.13;100.00;101111.63;5040084;28;20060;-74
2022/12/28 10:34:51;;;;;;;7.07;3.40;;;;;;;9.10;100.00;101108.41;5038480;28;20028;-75
2022/12/28 10:37:18;;;;;;;13.02;3.22;;;;;;;9.08;100.00;101111.31;5034295;28;20049;-75
2022/12/28 10:40:15;;;;;;;5.20;2.58;;;;;;;9.07;100.00;101109.63;5034751;28;20061;-76
2022/12/28 10:42:45;;;;;;;7.97;2.60;;;;;;;9.11;100.00;101094.56;5038656;28;20028;-76
2022/12/28 10:45:32;;;;;;;10.10;2.92;;;;;;;9.15;100.00;101103.25;5036463;28;20029;-75
2022/12/28 10:47:57;;;;;;;6.95;2.80;;;;;;;9.11;100.00;101101.91;5032950;28;20045;-75
2022/12/28 10:50:44;;;;;;;9.93;2.92;;;;;;;9.16;100.00;101121.34;5032848;28;20344;-75
2022/12/28 10:53:18;;;;;;;5.95;2.55;;;;;;;9.18;100.00;101102.91;5033840;28;20029;-75
2022/12/28 10:55:43;;;;;;;3.60;1.98;;;;;;;9.19;100.00;101093.66;5034047;28;20056;-74
2022/12/28 10:58:22;;;;;;;6.13;2.40;;;;;;;9.20;100.00;101098.09;5028826;28;20059;-75
2022/12/28 11:01:10;;;;;;;6.78;2.97;;;;;;;9.21;100.00;101088.84;5034408;28;20033;-74
2022/12/28 11:03:38;;;;;;;7.38;3.17;;;;;;;9.15;100.00;101086.84;5021409;28;20581;-74
2022/12/28 11:06:11;;;;;;;9.18;3.17;;;;;;;9.15;100.00;101078.66;5035385;28;20021;-74
2022/12/28 11:08:38;;;;;;;7.45;2.58;;;;;;;9.18;100.00;101086.50;5049501;28;20038;-74
2022/12/28 11:11:05;;;;;;;6.13;2.70;;;;;;;9.16;100.00;101072.16;5035551;28;20878;-74
2022/12/28 11:13:31;;;;;;;6.50;2.45;;;;;;;9.13;100.00;101076.09;5031373;28;20060;-75
2022/12/28 11:15:58;;;;;;;6.15;3.75;;;;;;;9.17;100.00;101062.91;5032170;28;20041;-74
2022/12/28 11:18:23;;;;;;;11.02;4.32;;;;;;;9.10;100.00;101062.81;5031601;28;20040;-75
2022/12/28 11:20:51;;;;;;;7.85;3.13;;;;;;;9.10;100.00;101061.94;5038440;28;20040;-74
2022/12/28 11:23:21;;;;;;;11.00;3.38;;;;;;;9.13;100.00;101051.50;5036443;28;20030;-76
2022/12/28 11:25:46;;;;;;;10.02;2.80;;;;;;;9.10;100.00;101051.03;5041282;28;20742;-75
2022/12/28 11:28:15;;;;;;;7.18;2.90;;;;;;;9.12;100.00;101043.50;5036036;28;20032;-75
2022/12/28 11:30:41;;;;;;;12.50;3.00;;;;;;;9.08;100.00;101047.63;5037130;28;20043;-75
2022/12/28 11:33:26;;;;;;;9.27;2.95;;;;;;;9.03;100.00;101044.59;5039684;28;20507;-75
2022/12/28 11:35:54;;;;;;;7.78;2.72;;;;;;;9.06;100.00;101046.94;5033586;28;20046;-74
2022/12/28 11:38:39;;;;;;;6.57;2.90;;;;;;;9.01;100.00;101047.50;5035055;28;20020;-75
2022/12/28 11:41:05;;;;;;;8.15;3.22;;;;;;;8.98;100.00;101045.13;5042104;28;20040;-75
2022/12/28 11:43:38;;;;;;;5.37;3.10;;;;;;;8.98;100.00;101042.41;5037549;28;20021;-75
2022/12/28 11:46:06;;;;;;;9.00;2.92;;;;;;;8.96;100.00;101029.97;5038301;28;20500;-74
2022/12/28 11:48:40;;;;;;;8.30;2.38;;;;;;;8.98;100.00;101031.47;5038570;28;20490;-75
2022/12/28 11:51:14;;;;;;;8.35;3.03;;;;;;;8.99;100.00;101032.34;5036361;28;20076;-74
2022/12/28 11:53:43;;;;;;;18.10;4.60;;;;;;;9.06;100.00;101030.56;5037201;28;20048;-75
2022/12/28 11:56:32;;;;;;;6.93;3.00;;;;;;;9.04;100.00;101024.44;5038121;28;20036;-74
2022/12/28 11:58:57;;;;;;;5.55;2.58;;;;;;;9.08;100.00;101009.38;5036927;28;20060;-74
2022/12/28 12:01:28;;;;;;;5.45;2.83;;;;;;;9.07;100.00;101004.97;5043448;28;20380;-75